• Join FlightAware (Why Join?)
  • Login
  • US Flag 
04:15AM EST


 

Airport Tracker/Info


-or-


 

Live Flight TrackerFlight Track Log ✈ AAL672 ✈ 19-Aug-2013 ✈ KMIA - KDEN

Flight Track Log - Related Links

Times and Time Zones

All times are in EDT time to prevent confusion due to time zone crossing. See the AAL672 flight status page for this flight to view local times or setup timezone preferences in your user account.

Time Position Orientation Groundspeed Altitude Reporting Facility
EDT Latitude Longitude Course Direction KTS MPH feet Rate Location/Type
08:55PM 25.7981 -80.2767 79° East 151 174 700  Level Miami Center
08:55PM 25.8031 -80.2469 79° East 161 185 2,000 1,740 Climbing Miami Center
08:56PM 25.8103 -80.1964 81° East 228 262 3,300 2,220 Climbing Miami Center
08:57PM 25.8758 -80.1658 23° Northeast 277 319 6,200 2,880 Climbing Miami Center
08:58PM 25.9308 -80.2319 313° West 304 350 9,100 2,460 Climbing Miami Center
08:59PM 25.9750 -80.3003 306° West 320 368 11,200 2,280 Climbing Miami Center
09:00PM 26.0356 -80.3900 307° West 347 399 13,700 2,400 Climbing Miami Center
09:01PM 26.0981 -80.4842 306° West 369 425 16,000 2,220 Climbing Miami Center
09:02PM 26.1817 -80.5678 318° Northwest 384 442 18,200 2,040 Climbing Miami Center
09:03PM 26.2717 -80.6400 324° Northwest 396 456 20,100 2,100 Climbing Miami Center
09:04PM 26.3761 -80.7222 325° Northwest 416 479 22,500 2,100 Climbing Miami Center
09:05PM 26.4597 -80.7900 324° Northwest 423 487 24,400 1,800 Climbing Miami Center
09:06PM 26.5661 -80.8725 325° Northwest 423 487 26,200 1,680 Climbing Miami Center
09:07PM 26.6561 -80.9431 325° Northwest 428 493 27,800 1,620 Climbing Miami Center
09:08PM 26.7561 -81.0208 325° Northwest 441 507 29,500 1,680 Climbing Miami Center
09:10PM 26.8683 -81.1108 324° Northwest 446 513 31,500 1,500 Climbing Miami Center
09:11PM 26.9886 -81.2086 324° Northwest 446 513 32,900 1,500 Climbing Miami Center
09:12PM 27.0825 -81.2844 324° Northwest 446 513 34,500 1,560 Climbing Miami Center
09:13PM 27.1822 -81.3628 325° Northwest 446 513 36,100 1,500 Climbing Miami Center
09:14PM 27.2922 -81.4514 324° Northwest 446 513 37,600 900 Climbing Miami Center
09:15PM 27.3939 -81.5325 325° Northwest 446 513 38,000 180 Climbing Miami Center
09:16PM 27.4936 -81.6114 325° Northwest 446 513 38,000  Level Miami Center
09:17PM 27.5831 -81.6853 324° Northwest 446 513 38,000  Level Miami Center
09:18PM 27.6825 -81.7669 324° Northwest 446 513 38,000  Level Miami Center
09:19PM 27.7922 -81.8561 324° Northwest 446 513 38,000  Level Miami Center
09:20PM 27.9672 -81.9619 332° Northwest 449 517 38,000  Level Jacksonville Center
09:21PM 28.0881 -81.9681 357° North 427 491 38,000  Level Jacksonville Center
09:22PM 28.2069 -81.9553 North 421 484 38,000  Level Jacksonville Center
09:23PM 28.3300 -81.9444 North 426 490 38,000  Level Jacksonville Center
09:24PM 28.4636 -81.9314 North 436 502 38,000  Level Jacksonville Center
09:25PM 28.5867 -81.9208 North 436 502 38,000  Level Jacksonville Center
09:26PM 28.6908 -81.9081 North 436 502 38,000  Level Jacksonville Center
09:27PM 28.8161 -81.8997 North 436 502 38,000  Level Jacksonville Center
09:28PM 28.9369 -81.8961 North 441 507 38,000  Level Jacksonville Center
09:29PM 29.0606 -81.9447 341° North 424 488 38,000  Level Jacksonville Center
09:30PM 29.1717 -82.0103 333° Northwest 438 504 38,000  Level Jacksonville Center
09:31PM 29.2828 -82.0758 333° Northwest 438 504 38,000  Level Jacksonville Center
09:32PM 29.3936 -82.1394 333° Northwest 444 511 38,000  Level Jacksonville Center
09:33PM 29.4964 -82.2197 326° Northwest 449 517 38,000  Level Jacksonville Center
09:34PM 29.5658 -82.3386 304° West 439 505 38,000  Level Jacksonville Center
09:35PM 29.6292 -82.4672 300° West 452 520 38,000  Level Jacksonville Center
09:36PM 29.6919 -82.5961 299° West 457 526 38,000  Level Jacksonville Center
09:37PM 29.7569 -82.7275 300° West 472 543 38,000  Level Jacksonville Center
09:38PM 29.8219 -82.8614 299° West 477 549 38,000  Level Jacksonville Center
09:39PM 29.8864 -82.9883 300° West 466 536 38,000  Level Jacksonville Center
09:40PM 29.9489 -83.1178 299° West 462 532 38,000  Level Jacksonville Center
09:41PM 30.0133 -83.2475 300° West 462 532 38,000  Level Jacksonville Center
09:42PM 30.0714 -83.3631 300° West 457 526 38,000  Level Jacksonville Center
09:43PM 30.1314 -83.4906 299° West 457 526 38,000  Level Jacksonville Center
09:44PM 30.1642 -83.6303 285° West 457 526 38,000  Level Jacksonville Center
09:45PM 30.1883 -83.7722 281° West 457 526 38,000  Level Jacksonville Center
09:46PM 30.2103 -83.9164 280° West 457 526 38,000  Level Jacksonville Center
09:47PM 30.2342 -84.0586 281° West 457 526 38,000  Level Jacksonville Center
09:48PM 30.2556 -84.2056 280° West 462 532 38,000  Level Jacksonville Center
09:49PM 30.2792 -84.3478 281° West 462 532 38,000  Level Jacksonville Center
09:50PM 30.3003 -84.4950 279° West 467 537 38,000  Level Jacksonville Center
09:51PM 30.3256 -84.6397 281° West 467 537 38,000  Level Jacksonville Center
09:52PM 30.3486 -84.7869 280° West 467 537 38,000  Level Jacksonville Center
09:53PM 30.3733 -84.9294 281° West 467 537 38,000  Level Jacksonville Center
09:54PM 30.4042 -85.0914 282° West 467 537 38,000  Level Jacksonville Center
09:55PM 30.4286 -85.2367 281° West 467 537 38,000  Level Jacksonville Center
09:56PM 30.4553 -85.3819 282° West 467 537 38,000  Level Jacksonville Center
09:57PM 30.5067 -85.5158 294° West 459 528 38,000  Level Jacksonville Center
09:58PM 30.5836 -85.6314 308° West 459 528 38,000  Level Jacksonville Center
09:59PM 30.6644 -85.7494 309° West 465 535 38,000  Level Jacksonville Center
10:00PM 30.7433 -85.8631 309° West 465 535 38,000  Level Jacksonville Center
10:01PM 30.8200 -85.9792 308° West 459 528 38,000  Level Jacksonville Center
10:02PM 30.8986 -86.0956 308° West 459 528 38,000  Level Jacksonville Center
10:03PM 30.9769 -86.2097 309° West 459 528 38,000  Level Jacksonville Center
10:04PM 31.0414 -86.3039 309° West 459 528 38,000  Level Jacksonville Center
10:05PM 31.1192 -86.4331 305° West 452 520 38,000  Level Jacksonville Center
10:06PM 31.2053 -86.5600 308° West 452 520 38,000  Level Jacksonville Center
10:07PM 31.2792 -86.6772 306° West 452 520 38,000  Level Jacksonville Center
10:09PM 31.3836 -86.8214 310° West 452 520 38,000  Level Atlanta Center
10:10PM 31.4500 -86.9281 306° West 452 520 38,000  Level Atlanta Center
10:11PM 31.5367 -87.0528 309° West 452 520 38,000  Level Atlanta Center
10:12PM 31.6111 -87.1697 307° West 447 514 38,000  Level Atlanta Center
10:13PM 31.6711 -87.2622 307° West 447 514 38,000  Level Atlanta Center
10:14PM 31.7633 -87.4022 308° West 447 514 38,000  Level Atlanta Center
10:15PM 31.8394 -87.5200 307° West 447 514 38,000  Level Atlanta Center
10:16PM 31.9156 -87.6378 307° West 452 520 38,000  Level Atlanta Center
10:17PM 31.9914 -87.7536 308° West 452 520 38,000  Level Atlanta Center
10:18PM 32.0650 -87.8719 306° West 452 520 38,000  Level Atlanta Center
10:20PM 32.2217 -88.1131 308° West 453 521 38,000  Level Memphis Center
10:21PM 32.2925 -88.2292 306° West 447 514 38,000  Level Memphis Center
10:22PM 32.3633 -88.3431 306° West 442 509 38,000  Level Memphis Center
10:23PM 32.4319 -88.4547 306° West 437 503 38,000  Level Memphis Center
10:24PM 32.5086 -88.5714 308° West 425 489 38,000  Level Memphis Center
10:25PM 32.5792 -88.6858 306° West 425 489 38,000  Level Memphis Center
10:26PM 32.6475 -88.7931 307° West 425 489 38,000  Level Memphis Center
10:27PM 32.7178 -88.9078 306° West 425 489 38,000  Level Memphis Center
10:28PM 32.7878 -89.0203 307° West 425 489 38,000  Level Memphis Center
10:29PM 32.8600 -89.1356 307° West 425 489 38,000  Level Memphis Center
10:30PM 32.9300 -89.2483 307° West 425 489 38,000  Level Memphis Center
10:31PM 33.0019 -89.3639 307° West 430 495 38,000  Level Memphis Center
10:32PM 33.0675 -89.4647 308° West 430 495 38,000  Level Memphis Center
10:33PM 33.1392 -89.5831 306° West 430 495 38,000  Level Memphis Center
10:34PM 33.2108 -89.6992 306° West 430 495 38,000  Level Memphis Center
10:35PM 33.2803 -89.8156 306° West 430 495 38,000  Level Memphis Center
10:36PM 33.3517 -89.9319 306° West 430 495 38,000  Level Memphis Center
10:37PM 33.4208 -90.0486 305° West 430 495 38,000  Level Memphis Center
10:38PM 33.4900 -90.1656 305° West 430 495 38,000  Level Memphis Center
10:39PM 33.5592 -90.2997 302° West 436 502 38,000  Level Memphis Center
10:40PM 33.6239 -90.4222 302° West 436 502 38,000  Level Memphis Center
10:41PM 33.6906 -90.5469 303° West 436 502 38,000  Level Memphis Center
10:42PM 33.7508 -90.6669 301° West 436 502 38,000  Level Memphis Center
10:43PM 33.8150 -90.7922 302° West 436 502 38,000  Level Memphis Center
10:44PM 33.8711 -90.9050 301° West 436 502 38,000  Level Memphis Center
10:45PM 33.9350 -91.0281 302° West 434 499 38,000  Level Memphis Center
10:46PM 33.9969 -91.1514 301° West 434 499 38,000  Level Memphis Center
10:47PM 34.0608 -91.2747 302° West 434 499 38,000  Level Memphis Center
10:48PM 34.1308 -91.4136 301° West 434 499 38,000  Level Memphis Center
10:49PM 34.1942 -91.5400 301° West 434 499 38,000  Level Memphis Center
10:50PM 34.2578 -91.6639 302° West 434 499 38,000  Level Memphis Center
10:51PM 34.3169 -91.7831 301° West 426 490 38,000  Level Memphis Center
10:52PM 34.3781 -91.9072 301° West 426 490 38,000  Level Memphis Center
10:53PM 34.4392 -92.0319 301° West 431 496 38,000  Level Memphis Center
10:54PM 34.5019 -92.1567 301° West 431 496 38,000  Level Memphis Center
10:55PM 34.5628 -92.2839 300° West 431 496 38,000  Level Memphis Center
10:56PM 34.6233 -92.4089 301° West 431 496 38,000  Level Memphis Center
10:57PM 34.6817 -92.5317 300° West 431 496 38,000  Level Memphis Center
10:58PM 34.7442 -92.6569 301° West 431 496 38,000  Level Memphis Center
10:59PM 34.8025 -92.7800 300° West 426 490 38,000  Level Memphis Center
11:00PM 34.8625 -92.9006 301° West 426 490 38,000  Level Memphis Center
11:01PM 34.9225 -93.0267 300° West 426 490 38,000  Level Memphis Center
11:02PM 34.9683 -93.1269 299° West 426 490 38,000  Level Memphis Center
11:03PM 35.0342 -93.2633 301° West 426 490 38,000  Level Memphis Center
11:04PM 35.0936 -93.3872 300° West 426 490 38,000  Level Memphis Center
11:05PM 35.1511 -93.5139 299° West 426 490 38,000  Level Memphis Center
11:06PM 35.2106 -93.6381 300° West 426 490 38,000  Level Memphis Center
11:07PM 35.2678 -93.7572 300° West 426 490 38,000  Level Memphis Center
11:08PM 35.3289 -93.8844 301° West 420 483 38,000  Level Memphis Center
11:09PM 35.3881 -94.0067 301° West 425 489 38,000  Level Memphis Center
11:10PM 35.4447 -94.1339 299° West 425 489 38,000  Level Memphis Center
11:11PM 35.5014 -94.2564 300° West 425 489 38,000  Level Memphis Center
11:12PM 35.5656 -94.3972 299° West 425 489 38,000  Level Memphis Center
11:13PM 35.6219 -94.5225 299° West 425 489 38,000  Level Memphis Center
11:14PM 35.6825 -94.6483 301° West 425 489 38,000  Level Memphis Center
11:15PM 35.7406 -94.7739 300° West 425 489 38,000  Level Memphis Center
11:16PM 35.7878 -94.8778 299° West 422 486 38,000  Level Kansas City Center
11:17PM 35.8453 -95.0036 299° West 420 483 38,000  Level Kansas City Center
11:18PM 35.9028 -95.1278 300° West 417 480 38,000  Level Kansas City Center
11:19PM 35.9592 -95.2519 299° West 414 476 38,000  Level Kansas City Center
11:20PM 36.0158 -95.3792 299° West 418 481 38,000  Level Kansas City Center
11:21PM 36.0733 -95.5075 299° West 421 484 38,000  Level Kansas City Center
11:22PM 36.1236 -95.6203 299° West 422 486 38,000  Level Kansas City Center
11:23PM 36.1886 -95.7667 299° West 426 490 38,000  Level Kansas City Center
11:24PM 36.2400 -95.9022 295° West 430 495 38,000  Level Kansas City Center
11:25PM 36.2900 -96.0381 295° West 430 495 38,000  Level Kansas City Center
11:26PM 36.3408 -96.1739 295° West 432 497 38,000  Level Kansas City Center
11:27PM 36.3914 -96.3108 295° West 433 498 38,000  Level Kansas City Center
11:28PM 36.4414 -96.4481 294° West 435 501 38,100 480 Climbing Kansas City Center
11:29PM 36.4903 -96.5836 294° West 433 498 39,000 900 Climbing Kansas City Center
11:30PM 36.5408 -96.7200 295° West 432 497 40,000 480 Climbing Kansas City Center
11:31PM 36.5933 -96.8525 296° West 429 494 40,000  Level Kansas City Center
11:32PM 36.6411 -96.9844 294° West 421 484 40,000  Level Kansas City Center
11:33PM 36.6889 -97.1119 295° West 417 480 40,000  Level Kansas City Center
11:34PM 36.7469 -97.2728 294° West 423 487 40,000  Level Kansas City Center
11:35PM 36.7953 -97.4075 294° West 426 490 40,000  Level Kansas City Center
11:36PM 36.8425 -97.5400 294° West 428 493 40,000  Level Kansas City Center
11:37PM 36.8911 -97.6786 294° West 431 496 40,000  Level Kansas City Center
11:38PM 36.9397 -97.8164 294° West 432 497 40,000  Level Kansas City Center
11:39PM 36.9886 -97.9547 294° West 433 498 40,000  Level Kansas City Center
11:40PM 37.0375 -98.0931 294° West 434 499 40,000  Level Kansas City Center
11:41PM 37.0853 -98.2311 293° West 433 498 40,000  Level Kansas City Center
11:42PM 37.1333 -98.3697 294° West 432 497 40,000  Level Kansas City Center
11:43PM 37.1811 -98.5075 294° West 430 495 40,000  Level Kansas City Center
11:44PM 37.2289 -98.6461 293° West 430 495 40,000  Level Kansas City Center
11:45PM 37.2747 -98.7819 293° West 426 490 40,000  Level Kansas City Center
11:46PM 37.3211 -98.9186 293° West 425 489 40,000  Level Kansas City Center
11:47PM 37.3672 -99.0539 293° West 423 487 40,000  Level Kansas City Center
11:48PM 37.4125 -99.1883 293° West 419 482 40,000  Level Kansas City Center
11:49PM 37.4583 -99.3225 293° West 417 480 40,000  Level Kansas City Center
11:50PM 37.5175 -99.4822 295° West 418 481 40,000  Level Kansas City Center
11:51PM 37.5631 -99.6092 294° West 417 480 40,000  Level Kansas City Center
11:52PM 37.6083 -99.7383 294° West 420 483 40,000  Level Kansas City Center
11:53PM 37.6619 -99.8875 294° West 419 482 40,000  Level Kansas City Center
11:54PM 37.7081 -100.0156 295° West 420 483 40,000  Level Kansas City Center
11:55PM 37.7528 -100.1453 294° West 421 484 40,000  Level Kansas City Center
11:56PM 37.8050 -100.2953 294° West 420 483 40,000  Level Kansas City Center
11:57PM 37.8500 -100.4258 294° West 424 488 40,000  Level Kansas City Center
11:58PM 37.8947 -100.5550 294° West 423 487 40,000  Level Kansas City Center
11:59PM 37.9475 -100.7058 294° West 423 487 40,000  Level Kansas City Center
12:00AM 37.9919 -100.8358 293° West 424 488 40,000  Level Kansas City Center
12:01AM 38.0414 -100.9883 292° West 423 487 40,000  Level Kansas City Center
12:02AM 38.0869 -101.1217 294° West 430 495 40,000  Level Kansas City Center
12:03AM 38.1308 -101.2544 293° West 430 495 40,000  Level Kansas City Center
12:04AM 38.1658 -101.3386 298° West 429 494 40,000  Level Denver Center
12:05AM 38.2353 -101.4803 302° West 423 487 40,000  Level Denver Center
12:06AM 38.2953 -101.6025 302° West 425 489 40,000  Level Denver Center
12:07AM 38.3547 -101.7242 302° West 423 487 40,000  Level Denver Center
12:08AM 38.4233 -101.8667 302° West 423 487 40,000 -120 Level Denver Center
12:09AM 38.4828 -101.9869 302° West 420 483 39,800 -600 Descending Denver Center
12:10AM 38.5411 -102.1067 302° West 416 479 38,800 -1,140 Descending Denver Center
12:11AM 38.6081 -102.2464 302° West 413 475 37,600 -1,140 Descending Denver Center
12:12AM 38.6658 -102.3686 301° West 419 482 36,600 -1,080 Descending Denver Center
12:13AM 38.7342 -102.5100 302° West 421 484 35,500 -1,140 Descending Denver Center
12:14AM 38.7928 -102.6331 301° West 424 488 34,400 -1,140 Descending Denver Center
12:15AM 38.8500 -102.7544 301° West 428 493 33,300 -720 Descending Denver Center
12:16AM 38.9139 -102.8872 302° West 437 503 33,000 -540 Descending Denver Center
12:17AM 39.0006 -103.0736 301° West 434 499 32,100 -900 Descending Denver Center
12:18AM 39.0614 -103.2081 300° West 436 502 31,100 -1,200 Descending Denver Center
12:19AM 39.1244 -103.3386 302° West 432 497 29,700 -1,680 Descending Denver Center
12:20AM 39.1831 -103.4683 300° West 423 487 27,800 -1,920 Descending Denver Center
12:21AM 39.2408 -103.5925 301° West 407 468 25,800 -1,980 Descending Denver Center
12:22AM 39.2969 -103.7150 301° West 400 460 23,800 -1,920 Descending Denver Center
12:23AM 39.3517 -103.8358 300° West 391 450 21,900 -1,380 Descending Denver Center
12:24AM 39.4075 -103.9550 301° West 369 425 21,100 -1,260 Descending Denver Center
12:25AM 39.4664 -104.0486 309° West 333 383 19,400 -1,680 Descending Denver Center
12:26AM 39.5269 -104.1531 307° West 336 387 17,800 -1,380 Descending Denver Center
12:27AM 39.5833 -104.2431 309° West 323 372 16,600 -1,080 Descending Denver Center
12:28AM 39.6344 -104.3311 307° West 311 358 15,700 -840 Descending Denver Center
12:29AM 39.6875 -104.4206 308° West 312 359 15,000 -1,140 Descending Denver Center
12:31AM 39.7411 -104.5069 309° West 310 357 13,500 -1,560 Descending Denver Center
12:32AM 39.8297 -104.5214 353° North 304 350 11,900 -1,140 Descending Denver Center
12:33AM 39.9122 -104.5208 360° North 295 339 11,200 -600 Descending Denver Center
12:34AM 39.9853 -104.5192 North 264 304 10,800 -600 Descending Denver Center
12:35AM 40.0544 -104.5181 North 245 282 10,000 -900 Descending Denver Center
12:36AM 40.0972 -104.5667 319° Northwest 214 246 9,000 -1,020 Descending Denver Center
12:37AM 40.0778 -104.6253 247° West 192 221 8,000 -540 Descending Denver Center
12:38AM 40.0353 -104.6575 210° Southwest 178 205 8,000 -420 Level Denver Center
12:39AM 39.9919 -104.6833 205° Southwest 173 199 7,200 -840 Descending Denver Center
12:40AM 39.9506 -104.6858 183° South 147 169 6,400 -720 Descending Denver Center
12:41AM 39.9150 -104.6867 181° South 130 150 5,800 -540 Descending Denver Center
12:42AM 39.8786 -104.6872 181° South 126 145 5,400 -420 Descending Denver Center